Time;durP1;ratioP1;P1;durP2;ratioP2;P2;SDS_P1;SDS_P2;PMS_P1;PMS_P2;Temp;Humidity;BMP_temperature;BMP_pressure;BME280_temperature;BME280_humidity;BME280_pressure;Samples;Min_cycle;Max_cycle;Signal;HPM_P1;HPM_P2
2022/08/02 00:00:42;;;;;;;;;;;13.00;99.90;;;;;;5158353;27;19930;-70
2022/08/02 00:03:08;;;;;;;;;;;13.10;99.90;;;;;;5158317;27;19930;-70
2022/08/02 00:05:33;;;;;;;;;;;13.10;99.90;;;;;;5158417;27;19923;-70
2022/08/02 00:07:59;;;;;;;;;;;13.00;99.90;;;;;;5139749;27;19923;-70
2022/08/02 00:10:24;;;;;;;;;;;13.00;99.90;;;;;;5158162;27;20043;-69
2022/08/02 00:12:50;;;;;;;;;;;13.00;99.90;;;;;;5157918;27;20271;-69
2022/08/02 00:15:16;;;;;;;;;;;13.00;99.90;;;;;;5158112;27;19930;-70
2022/08/02 00:17:42;;;;;;;;;;;12.90;99.90;;;;;;5158052;27;19983;-70
2022/08/02 00:20:09;;;;;;;;;;;12.90;99.90;;;;;;5158299;27;19946;-70
2022/08/02 00:22:34;;;;;;;;;;;12.90;99.90;;;;;;5139929;27;19931;-70
2022/08/02 00:25:00;;;;;;;;;;;12.90;99.90;;;;;;5122461;27;19927;-70
2022/08/02 00:27:26;;;;;;;;;;;12.90;99.90;;;;;;5157948;27;19966;-70
2022/08/02 00:29:51;;;;;;;;;;;13.00;99.90;;;;;;5135766;27;20010;-70
2022/08/02 00:32:17;;;;;;;;;;;12.90;99.90;;;;;;5135766;27;19928;-71
2022/08/02 00:34:42;;;;;;;;;;;13.00;99.90;;;;;;5135642;27;19923;-69
2022/08/02 00:37:08;;;;;;;;;;;13.00;99.90;;;;;;5118816;27;19934;-70
2022/08/02 00:39:34;;;;;;;;;;;13.00;99.90;;;;;;5136995;27;19931;-69
2022/08/02 00:41:59;;;;;;;;;;;13.00;99.90;;;;;;5135793;27;19923;-70
2022/08/02 00:44:26;;;;;;;;;;;13.00;99.90;;;;;;5136940;27;19924;-70
2022/08/02 00:46:52;;;;;;;;;;;13.00;99.90;;;;;;5136829;27;19924;-70
2022/08/02 00:49:17;;;;;;;;;;;13.00;99.90;;;;;;5136634;27;20385;-69
2022/08/02 00:51:43;;;;;;;;;;;13.20;99.90;;;;;;5136269;27;19930;-69
2022/08/02 00:54:09;;;;;;;;;;;13.10;99.90;;;;;;5135530;27;20394;-68
2022/08/02 00:56:34;;;;;;;;;;;13.10;99.90;;;;;;5135774;27;19923;-70
2022/08/02 00:59:00;;;;;;;;;;;13.10;99.90;;;;;;5136573;27;20374;-70
2022/08/02 01:01:38;;;;;;;;;;;13.00;99.90;;;;;;5136437;27;19930;-69
2022/08/02 01:04:08;;;;;;;;;;;13.10;99.90;;;;;;5136312;27;19931;-70
2022/08/02 01:06:34;;;;;;;;;;;13.10;99.90;;;;;;5136557;27;20055;-69
2022/08/02 01:09:00;;;;;;;;;;;13.10;99.90;;;;;;5135159;27;19924;-69
2022/08/02 01:11:27;;;;;;;;;;;13.10;99.90;;;;;;5118278;27;19923;-71
2022/08/02 01:13:55;;;;;;;;;;;13.10;99.90;;;;;;5136092;27;20011;-71
2022/08/02 01:16:22;;;;;;;;;;;13.10;99.90;;;;;;5136149;27;19946;-69
2022/08/02 01:18:51;;;;;;;;;;;13.20;99.90;;;;;;5135983;27;19976;-70
2022/08/02 01:21:35;;;;;;;;;;;13.10;99.90;;;;;;5136311;27;19924;-70
2022/08/02 01:24:07;;;;;;;;;;;13.00;99.90;;;;;;5136070;27;19923;-69
2022/08/02 01:26:52;;;;;;;;;;;13.00;99.90;;;;;;5135188;27;19968;-69
2022/08/02 01:29:21;;;;;;;;;;;13.00;99.90;;;;;;5117496;27;19930;-70
2022/08/02 01:31:54;;;;;;;;;;;13.00;99.90;;;;;;5135926;27;19931;-69
2022/08/02 01:34:38;;;;;;;;;;;13.00;99.90;;;;;;5134663;27;19924;-69
2022/08/02 01:37:16;;;;;;;;;;;13.00;99.90;;;;;;5134821;27;20064;-70
2022/08/02 01:39:43;;;;;;;;;;;13.00;99.90;;;;;;5134334;27;20293;-70
2022/08/02 01:42:09;;;;;;;;;;;13.00;99.90;;;;;;5135791;27;19927;-69
2022/08/02 01:44:36;;;;;;;;;;;13.00;99.90;;;;;;5134847;27;19924;-70
2022/08/02 01:47:05;;;;;;;;;;;13.00;99.90;;;;;;5135696;27;19928;-69
2022/08/02 01:49:31;;;;;;;;;;;13.00;99.90;;;;;;5135570;27;20343;-70
2022/08/02 01:54:43;;;;;;;;;;;12.90;99.90;;;;;;5135477;27;19924;-69
2022/08/02 01:57:10;;;;;;;;;;;12.90;99.90;;;;;;5135549;27;19927;-71
2022/08/02 01:59:37;;;;;;;;;;;13.10;99.90;;;;;;5135467;27;20294;-70
2022/08/02 02:02:04;;;;;;;;;;;11.90;99.90;;;;;;5134265;27;19970;-70
2022/08/02 02:04:30;;;;;;;;;;;12.90;99.90;;;;;;5134493;27;19927;-70
2022/08/02 02:06:56;;;;;;;;;;;12.80;99.90;;;;;;5135117;27;19927;-70
2022/08/02 02:09:23;;;;;;;;;;;12.80;99.90;;;;;;5134260;27;19924;-70
2022/08/02 02:11:48;;;;;;;;;;;12.80;99.90;;;;;;5134408;27;19927;-69
2022/08/02 02:14:15;;;;;;;;;;;12.80;99.90;;;;;;5135155;27;19930;-70
2022/08/02 02:16:42;;;;;;;;;;;12.80;99.90;;;;;;5135250;27;19931;-69
2022/08/02 02:19:08;;;;;;;;;;;12.80;99.90;;;;;;5135082;27;20298;-70
2022/08/02 02:21:33;;;;;;;;;;;12.80;99.90;;;;;;5134841;27;19923;-70
2022/08/02 02:23:59;;;;;;;;;;;12.80;99.90;;;;;;5134159;27;19927;-70
2022/08/02 02:26:26;;;;;;;;;;;12.70;99.90;;;;;;5134141;27;20350;-70
2022/08/02 02:28:52;;;;;;;;;;;12.70;99.90;;;;;;5135477;27;19963;-71
2022/08/02 02:31:20;;;;;;;;;;;12.70;99.90;;;;;;5155580;27;19923;-70
2022/08/02 02:33:59;;;;;;;;;;;12.60;99.90;;;;;;5155447;27;20381;-70
2022/08/02 02:36:25;;;;;;;;;;;12.60;99.90;;;;;;5155429;27;19973;-70
2022/08/02 02:38:51;;;;;;;;;;;12.60;99.90;;;;;;5137069;27;19925;-70
2022/08/02 02:41:17;;;;;;;;;;;12.60;99.90;;;;;;5155590;27;19997;-70
2022/08/02 02:43:44;;;;;;;;;;;12.60;99.90;;;;;;5137284;27;19982;-70
2022/08/02 02:46:11;;;;;;;;;;;12.50;99.90;;;;;;5155438;27;19923;-70
2022/08/02 02:48:37;;;;;;;;;;;12.50;99.90;;;;;;5137084;27;19988;-70
2022/08/02 02:51:03;;;;;;;;;;;12.10;99.90;;;;;;5155194;27;19923;-70
2022/08/02 02:53:29;;;;;;;;;;;12.50;99.90;;;;;;5155300;27;19979;-69
2022/08/02 02:55:56;;;;;;;;;;;12.50;99.90;;;;;;5137234;27;19923;-69
2022/08/02 02:58:21;;;;;;;;;;;12.50;99.90;;;;;;5155354;27;19983;-69
2022/08/02 03:03:31;;;;;;;;;;;12.50;99.90;;;;;;5171704;27;19971;-70
2022/08/02 03:05:57;;;;;;;;;;;12.50;99.90;;;;;;5136738;27;20025;-71
2022/08/02 03:08:22;;;;;;;;;;;12.40;99.90;;;;;;5137054;27;20010;-69
2022/08/02 03:10:48;;;;;;;;;;;12.40;99.90;;;;;;5137024;27;19927;-70
2022/08/02 03:13:14;;;;;;;;;;;12.40;99.90;;;;;;5154976;27;19923;-70
2022/08/02 03:15:40;;;;;;;;;;;12.40;99.90;;;;;;5158208;27;20392;-70
2022/08/02 03:18:08;;;;;;;;;;;12.40;99.90;;;;;;5141068;27;19926;-70
2022/08/02 03:20:34;;;;;;;;;;;12.40;99.90;;;;;;5159058;27;19930;-71
2022/08/02 03:22:59;;;;;;;;;;;12.40;99.90;;;;;;5159281;27;19927;-70
2022/08/02 03:25:25;;;;;;;;;;;12.40;99.90;;;;;;5159114;27;19923;-69
2022/08/02 03:27:50;;;;;;;;;;;12.40;99.90;;;;;;5175631;27;19930;-70
2022/08/02 03:30:16;;;;;;;;;;;12.40;99.90;;;;;;5158652;27;19923;-70
2022/08/02 03:32:45;;;;;;;;;;;13.00;99.90;;;;;;5175321;27;19930;-69
2022/08/02 03:35:12;;;;;;;;;;;12.40;99.90;;;;;;5158808;27;19989;-70
2022/08/02 03:37:37;;;;;;;;;;;12.40;99.90;;;;;;5140816;27;19923;-69
2022/08/02 03:40:08;;;;;;;;;;;13.00;99.90;;;;;;5158864;27;19923;-69
2022/08/02 03:42:33;;;;;;;;;;;12.40;99.90;;;;;;5158911;27;20270;-69
2022/08/02 03:45:00;;;;;;;;;;;12.80;99.90;;;;;;5158705;27;19927;-70
2022/08/02 03:47:27;;;;;;;;;;;12.40;99.90;;;;;;5158672;27;19923;-69
2022/08/02 03:49:53;;;;;;;;;;;12.40;99.90;;;;;;5158470;27;20254;-70
2022/08/02 03:52:19;;;;;;;;;;;12.40;99.90;;;;;;5158758;27;19923;-70
2022/08/02 03:54:45;;;;;;;;;;;12.20;99.90;;;;;;5158493;27;19930;-70
2022/08/02 03:57:10;;;;;;;;;;;12.30;99.90;;;;;;5158549;27;20011;-70
2022/08/02 03:59:40;;;;;;;;;;;12.60;99.90;;;;;;5158449;27;19923;-70
2022/08/02 04:02:06;;;;;;;;;;;12.30;99.90;;;;;;5158309;27;19923;-71
2022/08/02 04:04:31;;;;;;;;;;;12.30;99.90;;;;;;5158202;27;19988;-69
2022/08/02 04:06:57;;;;;;;;;;;12.40;99.90;;;;;;5158316;27;19930;-70
2022/08/02 04:09:22;;;;;;;;;;;12.30;99.90;;;;;;5158370;27;20025;-69
2022/08/02 04:11:48;;;;;;;;;;;12.40;99.90;;;;;;5174893;27;20014;-71
2022/08/02 04:14:14;;;;;;;;;;;12.30;99.90;;;;;;5155453;27;19923;-70
2022/08/02 04:16:42;;;;;;;;;;;12.30;99.90;;;;;;5158143;27;19966;-69
2022/08/02 04:19:09;;;;;;;;;;;12.40;99.90;;;;;;5156734;27;19967;-70
2022/08/02 04:21:39;;;;;;;;;;;12.40;99.90;;;;;;5157873;27;20363;-70
2022/08/02 04:24:05;;;;;;;;;;;11.70;99.90;;;;;;5157992;27;19930;-69
2022/08/02 04:26:31;;;;;;;;;;;12.40;99.90;;;;;;5138741;27;19923;-70
2022/08/02 04:28:57;;;;;;;;;;;12.40;99.90;;;;;;5157706;27;19923;-69
2022/08/02 04:31:24;;;;;;;;;;;12.30;99.90;;;;;;5157684;27;19945;-69
2022/08/02 04:33:51;;;;;;;;;;;12.40;99.90;;;;;;5156826;27;21301;-69
2022/08/02 04:36:17;;;;;;;;;;;12.40;99.90;;;;;;5139134;27;19926;-70
2022/08/02 04:38:43;;;;;;;;;;;12.40;99.90;;;;;;5139192;27;19923;-69
2022/08/02 04:41:08;;;;;;;;;;;12.40;99.90;;;;;;5157752;27;19927;-70
2022/08/02 04:43:34;;;;;;;;;;;12.50;99.90;;;;;;5157588;27;19923;-70
2022/08/02 04:46:03;;;;;;;;;;;12.50;99.90;;;;;;5157591;27;20357;-69
2022/08/02 04:48:29;;;;;;;;;;;12.50;99.90;;;;;;5157461;27;20381;-71
2022/08/02 04:50:54;;;;;;;;;;;12.50;99.90;;;;;;5157270;27;19934;-70
2022/08/02 04:53:20;;;;;;;;;;;12.50;99.90;;;;;;5139150;27;19930;-70
2022/08/02 04:55:46;;;;;;;;;;;12.60;99.90;;;;;;5157430;27;19923;-69
2022/08/02 04:58:12;;;;;;;;;;;12.60;99.90;;;;;;5157371;27;20014;-69
2022/08/02 05:00:37;;;;;;;;;;;12.60;99.90;;;;;;5157218;27;19927;-70
2022/08/02 05:03:03;;;;;;;;;;;12.60;99.90;;;;;;5173637;27;19923;-71
2022/08/02 05:05:28;;;;;;;;;;;12.70;99.90;;;;;;5121737;27;19978;-71
2022/08/02 05:07:54;;;;;;;;;;;12.70;99.90;;;;;;5156279;27;19923;-70
2022/08/02 05:10:20;;;;;;;;;;;12.80;99.90;;;;;;5156897;27;20027;-69
2022/08/02 05:12:45;;;;;;;;;;;12.80;99.90;;;;;;5157094;27;19923;-70
2022/08/02 05:15:11;;;;;;;;;;;12.80;99.90;;;;;;5138751;27;19975;-69
2022/08/02 05:17:37;;;;;;;;;;;12.90;99.90;;;;;;5156897;27;19967;-70
2022/08/02 05:20:04;;;;;;;;;;;12.90;99.90;;;;;;5156760;27;19923;-68
2022/08/02 05:22:29;;;;;;;;;;;13.00;99.90;;;;;;5156734;27;20372;-71
2022/08/02 05:24:55;;;;;;;;;;;13.00;99.90;;;;;;5156830;27;19930;-69
2022/08/02 05:27:20;;;;;;;;;;;13.00;99.90;;;;;;5156771;27;19923;-70
2022/08/02 05:29:46;;;;;;;;;;;13.10;99.90;;;;;;5156633;27;19998;-71
2022/08/02 05:32:11;;;;;;;;;;;13.10;99.90;;;;;;5156604;27;19930;-69
2022/08/02 05:34:37;;;;;;;;;;;13.20;99.90;;;;;;5156403;27;20021;-69
2022/08/02 05:37:02;;;;;;;;;;;13.30;99.90;;;;;;5156174;27;19983;-70
2022/08/02 05:39:28;;;;;;;;;;;13.20;99.90;;;;;;5172322;27;20014;-70
2022/08/02 05:41:54;;;;;;;;;;;13.30;99.90;;;;;;5156459;27;19977;-69
2022/08/02 05:44:19;;;;;;;;;;;13.30;99.90;;;;;;5156492;27;19923;-70
2022/08/02 05:46:45;;;;;;;;;;;13.40;99.90;;;;;;5156228;27;19927;-70
2022/08/02 05:49:10;;;;;;;;;;;13.50;99.90;;;;;;5156266;27;19981;-70
2022/08/02 05:51:38;;;;;;;;;;;13.60;99.90;;;;;;5137982;27;19992;-70
2022/08/02 05:54:11;;;;;;;;;;;13.60;99.90;;;;;;5137907;27;19991;-71
2022/08/02 05:56:46;;;;;;;;;;;13.60;99.90;;;;;;5138127;27;20333;-69
2022/08/02 05:59:16;;;;;;;;;;;13.70;99.90;;;;;;5156235;27;19923;-71
2022/08/02 06:01:42;;;;;;;;;;;13.70;99.90;;;;;;5155982;27;20412;-70
2022/08/02 06:04:09;;;;;;;;;;;13.80;99.90;;;;;;5155929;27;19923;-69
2022/08/02 06:06:35;;;;;;;;;;;13.80;99.90;;;;;;5137686;27;20459;-68
2022/08/02 06:09:02;;;;;;;;;;;13.90;99.90;;;;;;5154906;27;19923;-70
2022/08/02 06:11:50;;;;;;;;;;;14.00;99.90;;;;;;5155799;27;19936;-69
2022/08/02 06:14:16;;;;;;;;;;;14.10;99.90;;;;;;5155713;27;19975;-70
2022/08/02 06:16:43;;;;;;;;;;;14.20;99.90;;;;;;5137171;27;19930;-70
2022/08/02 06:19:10;;;;;;;;;;;14.20;99.90;;;;;;5155558;27;19946;-70
2022/08/02 06:21:37;;;;;;;;;;;14.30;99.90;;;;;;5155793;27;20404;-70
2022/08/02 06:24:04;;;;;;;;;;;14.40;99.90;;;;;;5155648;27;19989;-70
2022/08/02 06:26:30;;;;;;;;;;;14.50;99.90;;;;;;5137506;27;20296;-69
2022/08/02 06:28:57;;;;;;;;;;;15.20;99.90;;;;;;5137327;27;20014;-69
2022/08/02 06:31:22;;;;;;;;;;;14.60;99.90;;;;;;5136860;27;19923;-70
2022/08/02 06:33:48;;;;;;;;;;;14.70;99.90;;;;;;5171258;27;19930;-69
2022/08/02 06:36:49;;;;;;;;;;;14.80;99.90;;;;;;5155619;27;19976;-70
2022/08/02 06:39:28;;;;;;;;;;;14.80;99.90;;;;;;5111628;28;20345;-71
2022/08/02 06:41:57;;;;;;;;;;;14.90;99.90;;;;;;5111897;28;19931;-70
2022/08/02 06:44:23;;;;;;;;;;;15.00;99.90;;;;;;5112270;28;19924;-69
2022/08/02 06:46:48;;;;;;;;;;;15.10;99.90;;;;;;5094998;28;19939;-70
2022/08/02 06:49:14;;;;;;;;;;;15.20;99.90;;;;;;5111335;28;19924;-70
2022/08/02 06:51:40;;;;;;;;;;;15.20;99.90;;;;;;5094551;28;19924;-70
2022/08/02 06:54:05;;;;;;;;;;;15.30;99.90;;;;;;5094659;28;20290;-70
2022/08/02 06:56:31;;;;;;;;;;;15.50;99.90;;;;;;5111819;28;19976;-69
2022/08/02 06:58:56;;;;;;;;;;;15.50;99.90;;;;;;5111756;28;19931;-70
2022/08/02 07:01:22;;;;;;;;;;;14.40;99.90;;;;;;5111700;28;19924;-71
2022/08/02 07:03:47;;;;;;;;;;;15.60;99.90;;;;;;5111847;28;19931;-69
2022/08/02 07:06:13;;;;;;;;;;;15.70;99.90;;;;;;5111774;28;19931;-70
2022/08/02 07:08:38;;;;;;;;;;;15.70;99.90;;;;;;5095005;28;20382;-70
2022/08/02 07:11:04;;;;;;;;;;;16.00;99.90;;;;;;5111599;28;19970;-70
2022/08/02 07:13:30;;;;;;;;;;;15.90;99.90;;;;;;5138615;27;20293;-70
2022/08/02 07:15:55;;;;;;;;;;;15.90;99.90;;;;;;5155098;27;20455;-69
2022/08/02 07:18:22;;;;;;;;;;;16.00;99.90;;;;;;5155200;27;20283;-70
2022/08/02 07:20:47;;;;;;;;;;;15.00;99.90;;;;;;5136580;27;19970;-70
2022/08/02 07:23:13;;;;;;;;;;;16.10;99.90;;;;;;5136923;27;19962;-71
2022/08/02 07:25:39;;;;;;;;;;;16.20;99.90;;;;;;5154952;27;19927;-71
2022/08/02 07:28:04;;;;;;;;;;;16.30;99.90;;;;;;5154960;27;20376;-70
2022/08/02 07:30:31;;;;;;;;;;;16.30;99.90;;;;;;5154822;27;19926;-69
2022/08/02 07:33:00;;;;;;;;;;;16.50;99.90;;;;;;5154946;27;19923;-70
2022/08/02 07:35:25;;;;;;;;;;;16.50;99.90;;;;;;5154855;27;20309;-70
2022/08/02 07:37:52;;;;;;;;;;;16.60;99.90;;;;;;5154007;27;19923;-71
2022/08/02 07:40:18;;;;;;;;;;;16.80;99.90;;;;;;5136519;27;20014;-71
2022/08/02 07:42:44;;;;;;;;;;;16.80;99.90;;;;;;5154705;27;20019;-70
2022/08/02 07:45:10;;;;;;;;;;;16.80;99.90;;;;;;5154677;27;20010;-70
2022/08/02 07:47:37;;;;;;;;;;;17.00;99.90;;;;;;5154965;27;20021;-70
2022/08/02 07:50:03;;;;;;;;;;;17.00;99.90;;;;;;5154895;27;20025;-71
2022/08/02 07:52:28;;;;;;;;;;;17.10;99.90;;;;;;5136534;27;20034;-70
2022/08/02 07:54:54;;;;;;;;;;;17.10;99.90;;;;;;5154645;27;19923;-73
2022/08/02 07:57:19;;;;;;;;;;;17.20;99.90;;;;;;5136527;27;19923;-71
2022/08/02 07:59:46;;;;;;;;;;;17.30;99.90;;;;;;5136504;27;19962;-70
2022/08/02 08:02:13;;;;;;;;;;;17.40;99.90;;;;;;5138748;27;19929;-70
2022/08/02 08:04:39;;;;;;;;;;;17.40;99.90;;;;;;5140232;27;19979;-70
2022/08/02 08:07:08;;;;;;;;;;;17.50;99.90;;;;;;5158432;27;19923;-70
2022/08/02 08:09:38;;;;;;;;;;;17.60;99.90;;;;;;5158121;27;19923;-71
2022/08/02 08:12:05;;;;;;;;;;;17.60;99.90;;;;;;5139857;27;19923;-71
2022/08/02 08:14:30;;;;;;;;;;;17.70;99.90;;;;;;5157912;27;19923;-71
2022/08/02 08:16:56;;;;;;;;;;;17.80;99.90;;;;;;5157923;27;19923;-71
2022/08/02 08:19:21;;;;;;;;;;;17.90;99.90;;;;;;5158151;27;19978;-70
2022/08/02 08:21:47;;;;;;;;;;;18.00;99.90;;;;;;5158019;27;19923;-71
2022/08/02 08:24:12;;;;;;;;;;;18.10;99.90;;;;;;5139671;27;19973;-70
2022/08/02 08:26:38;;;;;;;;;;;18.20;99.90;;;;;;5157924;27;20338;-71
2022/08/02 08:29:05;;;;;;;;;;;18.30;99.90;;;;;;5174021;27;19974;-71
2022/08/02 08:31:30;;;;;;;;;;;18.30;99.90;;;;;;5157493;27;20447;-70
2022/08/02 08:33:56;;;;;;;;;;;18.40;99.90;;;;;;5173531;27;19923;-71
2022/08/02 08:36:21;;;;;;;;;;;18.50;99.90;;;;;;5157859;27;19970;-71
2022/08/02 08:38:49;;;;;;;;;;;18.60;99.90;;;;;;5157709;27;19931;-70
2022/08/02 08:41:18;;;;;;;;;;;18.70;99.90;;;;;;5157508;27;19923;-71
2022/08/02 08:43:43;;;;;;;;;;;18.80;99.90;;;;;;5139482;27;20017;-71
2022/08/02 08:46:35;;;;;;;;;;;18.90;99.90;;;;;;5157357;27;19973;-70
2022/08/02 08:49:24;;;;;;;;;;;18.90;99.90;;;;;;5155300;27;20391;-71
2022/08/02 08:51:50;;;;;;;;;;;19.00;99.90;;;;;;5113919;28;19959;-71
2022/08/02 08:54:16;;;;;;;;;;;19.10;99.90;;;;;;5113745;28;20441;-71
2022/08/02 08:56:42;;;;;;;;;;;19.20;99.90;;;;;;5113884;28;19928;-71
2022/08/02 08:59:07;;;;;;;;;;;19.30;99.90;;;;;;5113908;28;20449;-71
2022/08/02 09:01:33;;;;;;;;;;;19.40;99.90;;;;;;5097041;28;20383;-70
2022/08/02 09:03:59;;;;;;;;;;;19.50;99.90;;;;;;5113752;28;19978;-71
2022/08/02 09:06:24;;;;;;;;;;;19.60;99.90;;;;;;5113723;28;19924;-70
2022/08/02 09:08:50;;;;;;;;;;;19.60;99.90;;;;;;5113558;28;19969;-71
2022/08/02 09:11:17;;;;;;;;;;;19.70;99.90;;;;;;5113456;28;19924;-71
2022/08/02 09:13:50;;;;;;;;;;;19.80;99.90;;;;;;5112829;28;20361;-71
2022/08/02 09:16:26;;;;;;;;;;;19.90;99.90;;;;;;5113448;28;20089;-71
2022/08/02 09:18:52;;;;;;;;;;;20.00;99.90;;;;;;5113491;28;20034;-70
2022/08/02 09:21:17;;;;;;;;;;;20.00;99.90;;;;;;5110855;28;19924;-71
2022/08/02 09:23:44;;;;;;;;;;;20.10;99.90;;;;;;5113218;28;19924;-71
2022/08/02 09:26:11;;;;;;;;;;;20.10;99.90;;;;;;5098980;28;19932;-70
2022/08/02 09:28:38;;;;;;;;;;;20.20;99.90;;;;;;5105468;27;19974;-71
2022/08/02 09:31:06;;;;;;;;;;;20.20;99.90;;;;;;5135872;27;19923;-71
2022/08/02 09:33:32;;;;;;;;;;;20.30;99.90;;;;;;5143743;27;20301;-70
2022/08/02 09:36:06;;;;;;;;;;;20.40;99.90;;;;;;5141817;27;19924;-71
2022/08/02 09:38:32;;;;;;;;;;;20.40;99.90;;;;;;5154942;27;19923;-70
2022/08/02 09:40:58;;;;;;;;;;;20.50;99.90;;;;;;5156019;27;19946;-71
2022/08/02 09:43:37;;;;;;;;;;;20.60;99.90;;;;;;5155754;27;20273;-71
2022/08/02 09:46:20;;;;;;;;;;;20.60;99.90;;;;;;5137359;27;19966;-71
2022/08/02 09:48:50;;;;;;;;;;;20.70;99.90;;;;;;5156297;27;20293;-69
2022/08/02 09:51:16;;;;;;;;;;;20.80;99.90;;;;;;5156191;27;19927;-71
2022/08/02 09:53:42;;;;;;;;;;;20.90;99.90;;;;;;5138028;27;19923;-71
2022/08/02 09:56:07;;;;;;;;;;;21.00;99.90;;;;;;5137951;27;20277;-71
2022/08/02 09:58:36;;;;;;;;;;;21.10;99.90;;;;;;5137908;27;19923;-71
2022/08/02 10:01:02;;;;;;;;;;;21.20;99.90;;;;;;5154341;27;19976;-71
2022/08/02 10:03:28;;;;;;;;;;;21.30;99.90;;;;;;5154575;27;19923;-70
2022/08/02 10:05:54;;;;;;;;;;;21.40;99.90;;;;;;5155958;27;19924;-70
2022/08/02 10:08:20;;;;;;;;;;;21.50;99.90;;;;;;5156557;27;19944;-71
2022/08/02 10:10:46;;;;;;;;;;;21.50;99.90;;;;;;5155455;27;20391;-71
2022/08/02 10:13:13;;;;;;;;;;;21.60;99.90;;;;;;5151347;27;19988;-71
2022/08/02 10:15:38;;;;;;;;;;;21.70;99.90;;;;;;5130372;27;19998;-71
2022/08/02 10:18:05;;;;;;;;;;;21.70;99.90;;;;;;5155962;27;19981;-71
2022/08/02 10:20:32;;;;;;;;;;;21.80;99.90;;;;;;5155414;27;19923;-71
2022/08/02 10:22:59;;;;;;;;;;;21.80;99.90;;;;;;5154542;27;20373;-71
2022/08/02 10:25:26;;;;;;;;;;;21.80;99.90;;;;;;5153155;27;19946;-71
2022/08/02 10:27:51;;;;;;;;;;;21.80;99.90;;;;;;5155537;27;20070;-70
2022/08/02 10:30:17;;;;;;;;;;;21.80;99.90;;;;;;5154143;27;20006;-75
2022/08/02 10:32:44;;;;;;;;;;;21.90;99.90;;;;;;5154465;27;19950;-71
2022/08/02 10:35:12;;;;;;;;;;;21.90;99.90;;;;;;5155157;27;19923;-70
2022/08/02 10:37:38;;;;;;;;;;;22.00;99.90;;;;;;5154997;27;19923;-71
2022/08/02 10:40:05;;;;;;;;;;;22.10;99.90;;;;;;5137081;27;19923;-70
2022/08/02 10:42:45;;;;;;;;;;;22.10;99.90;;;;;;5137079;27;20309;-72
2022/08/02 10:45:13;;;;;;;;;;;22.20;99.90;;;;;;5144572;27;19927;-71
2022/08/02 10:47:55;;;;;;;;;;;22.20;99.90;;;;;;5130657;27;20334;-71
2022/08/02 10:50:37;;;;;;;;;;;22.20;99.90;;;;;;5171690;27;20066;-72
2022/08/02 10:53:22;;;;;;;;;;;22.30;99.90;;;;;;5176160;27;20014;-70
2022/08/02 10:55:48;;;;;;;;;;;22.30;99.90;;;;;;5176110;27;19932;-72
2022/08/02 10:58:21;;;;;;;;;;;22.30;99.90;;;;;;5175974;27;20281;-71
2022/08/02 11:00:48;;;;;;;;;;;22.40;99.90;;;;;;5176290;27;19923;-71
2022/08/02 11:03:29;;;;;;;;;;;22.50;99.90;;;;;;5157701;27;20398;-71
2022/08/02 11:06:02;;;;;;;;;;;22.50;99.90;;;;;;5176089;27;19930;-71
2022/08/02 11:08:28;;;;;;;;;;;22.60;99.90;;;;;;5175901;27;19974;-71
2022/08/02 11:11:08;;;;;;;;;;;22.70;99.90;;;;;;5175687;27;19927;-72
2022/08/02 11:13:53;;;;;;;;;;;22.70;99.90;;;;;;5175913;27;20013;-71
2022/08/02 11:16:18;;;;;;;;;;;22.80;99.90;;;;;;5157707;27;20025;-71
2022/08/02 11:18:50;;;;;;;;;;;22.80;99.90;;;;;;5157643;27;20014;-71
2022/08/02 11:21:25;;;;;;;;;;;22.90;99.90;;;;;;5175788;27;19923;-71
2022/08/02 11:23:51;;;;;;;;;;;22.90;99.90;;;;;;5176023;27;20357;-72
2022/08/02 11:26:29;;;;;;;;;;;23.10;99.90;;;;;;5157344;27;19923;-72
2022/08/02 11:28:55;;;;;;;;;;;23.10;99.90;;;;;;5171993;27;19922;-71
2022/08/02 11:31:21;;;;;;;;;;;23.10;99.90;;;;;;5157020;27;19968;-70
2022/08/02 11:33:49;;;;;;;;;;;23.30;99.90;;;;;;5175716;27;19927;-71
2022/08/02 11:36:15;;;;;;;;;;;23.20;99.90;;;;;;5178045;27;19952;-71
2022/08/02 11:38:41;;;;;;;;;;;23.30;99.90;;;;;;5179846;27;19927;-70
2022/08/02 11:41:07;;;;;;;;;;;23.40;99.90;;;;;;5179615;27;20013;-70
2022/08/02 11:43:32;;;;;;;;;;;23.40;99.90;;;;;;5179812;27;19929;-72
2022/08/02 11:46:02;;;;;;;;;;;23.50;99.90;;;;;;5161183;27;19922;-71
2022/08/02 11:48:34;;;;;;;;;;;23.50;99.90;;;;;;5179550;27;19922;-72
2022/08/02 11:51:03;;;;;;;;;;;23.50;99.90;;;;;;5179365;27;19929;-71
2022/08/02 11:53:32;;;;;;;;;;;23.00;99.90;;;;;;5179616;27;19994;-71
2022/08/02 11:55:58;;;;;;;;;;;23.50;99.90;;;;;;5179419;27;19929;-71
2022/08/02 11:58:23;;;;;;;;;;;23.60;99.90;;;;;;5161032;27;19923;-71
2022/08/02 12:00:49;;;;;;;;;;;23.60;99.90;;;;;;5179429;27;20021;-72
2022/08/02 12:03:14;;;;;;;;;;;23.40;99.90;;;;;;5179227;27;19929;-71
2022/08/02 12:05:40;;;;;;;;;;;23.70;99.90;;;;;;5179159;27;20017;-71
2022/08/02 12:08:06;;;;;;;;;;;23.70;99.90;;;;;;5160944;27;19981;-71
2022/08/02 12:10:32;;;;;;;;;;;23.80;99.90;;;;;;5160555;27;19923;-71
2022/08/02 12:12:59;;;;;;;;;;;23.80;99.90;;;;;;5179223;27;20277;-72
2022/08/02 12:15:36;;;;;;;;;;;23.90;99.90;;;;;;5178986;27;19930;-71
2022/08/02 12:20:46;;;;;;;;;;;24.00;99.90;;;;;;5179105;27;19930;-71
2022/08/02 12:23:12;;;;;;;;;;;24.10;99.90;;;;;;5178953;27;19923;-71
2022/08/02 12:25:38;;;;;;;;;;;24.10;99.90;;;;;;5160480;27;19973;-71
2022/08/02 12:28:21;;;;;;;;;;;24.10;99.90;;;;;;5160489;27;19922;-71
2022/08/02 12:30:54;;;;;;;;;;;24.10;99.90;;;;;;5159876;27;20002;-72
2022/08/02 12:33:20;;;;;;;;;;;24.10;99.90;;;;;;5178779;27;19933;-71
2022/08/02 12:35:46;;;;;;;;;;;24.10;99.90;;;;;;5178726;27;19922;-71
2022/08/02 12:38:12;;;;;;;;;;;23.40;99.90;;;;;;5178639;27;19923;-71
2022/08/02 12:40:37;;;;;;;;;;;24.10;99.90;;;;;;5159865;27;19922;-71
2022/08/02 12:43:04;;;;;;;;;;;24.10;99.90;;;;;;5178655;27;20380;-71
2022/08/02 12:45:31;;;;;;;;;;;24.10;99.90;;;;;;5178379;27;19927;-71
2022/08/02 12:47:58;;;;;;;;;;;24.10;99.90;;;;;;5177638;27;20270;-71
2022/08/02 12:50:28;;;;;;;;;;;24.00;99.90;;;;;;5178259;27;20406;-71
2022/08/02 12:53:09;;;;;;;;;;;24.20;99.90;;;;;;5178399;27;19923;-71
2022/08/02 12:55:39;;;;;;;;;;;23.60;99.90;;;;;;5178176;27;19966;-71
2022/08/02 12:58:05;;;;;;;;;;;24.20;99.90;;;;;;5178168;27;20341;-71
2022/08/02 13:00:32;;;;;;;;;;;24.20;99.90;;;;;;5178019;27;19974;-71
2022/08/02 13:02:58;;;;;;;;;;;24.20;99.90;;;;;;5178212;27;19975;-71
2022/08/02 13:05:25;;;;;;;;;;;24.20;99.90;;;;;;5178111;27;19927;-71
2022/08/02 13:07:50;;;;;;;;;;;24.20;99.90;;;;;;5177914;27;19954;-71
2022/08/02 13:10:17;;;;;;;;;;;24.20;99.90;;;;;;5177884;27;19923;-71
2022/08/02 13:12:42;;;;;;;;;;;24.20;99.90;;;;;;5177874;27;19923;-70
2022/08/02 13:15:09;;;;;;;;;;;24.30;99.90;;;;;;5178253;27;19930;-71
2022/08/02 13:17:35;;;;;;;;;;;24.30;99.90;;;;;;5177947;27;19923;-71
2022/08/02 13:20:00;;;;;;;;;;;24.40;99.90;;;;;;5177831;27;20395;-71
2022/08/02 13:22:26;;;;;;;;;;;24.40;99.90;;;;;;5177703;27;19927;-71
2022/08/02 13:24:51;;;;;;;;;;;24.40;99.90;;;;;;5177662;27;19977;-71
2022/08/02 13:27:17;;;;;;;;;;;24.40;99.90;;;;;;5159092;27;19931;-71
2022/08/02 13:29:43;;;;;;;;;;;24.40;99.90;;;;;;5159198;27;20380;-71
2022/08/02 13:32:08;;;;;;;;;;;24.40;99.90;;;;;;5177891;27;19930;-71
2022/08/02 13:34:34;;;;;;;;;;;24.40;99.90;;;;;;5177517;27;20398;-71
2022/08/02 13:37:00;;;;;;;;;;;24.40;99.90;;;;;;5177401;27;19949;-71
2022/08/02 13:39:26;;;;;;;;;;;24.40;99.90;;;;;;5177405;27;19930;-70
2022/08/02 13:41:51;;;;;;;;;;;24.40;99.90;;;;;;5158856;27;19922;-71
2022/08/02 13:44:17;;;;;;;;;;;24.30;99.90;;;;;;5177141;27;20376;-70
2022/08/02 13:46:43;;;;;;;;;;;24.30;99.90;;;;;;5177431;27;19930;-71
2022/08/02 13:49:08;;;;;;;;;;;24.30;99.90;;;;;;5177316;27;19985;-71
2022/08/02 13:51:34;;;;;;;;;;;24.20;99.90;;;;;;5177282;27;20369;-71
2022/08/02 13:54:00;;;;;;;;;;;24.10;99.90;;;;;;5177168;27;20021;-71
2022/08/02 13:56:26;;;;;;;;;;;24.10;99.90;;;;;;5177134;27;19925;-71
2022/08/02 13:58:51;;;;;;;;;;;24.10;99.90;;;;;;5158011;27;19923;-70
2022/08/02 14:01:17;;;;;;;;;;;24.10;99.90;;;;;;5176837;27;19975;-72
2022/08/02 14:03:43;;;;;;;;;;;24.10;99.90;;;;;;5158660;27;19923;-71
2022/08/02 14:06:09;;;;;;;;;;;24.10;99.90;;;;;;5142587;27;20018;-71
2022/08/02 14:08:35;;;;;;;;;;;24.20;99.90;;;;;;5116675;27;19972;-71
2022/08/02 14:11:01;;;;;;;;;;;24.10;99.90;;;;;;5135086;27;19923;-71
2022/08/02 14:13:26;;;;;;;;;;;24.10;99.90;;;;;;5116769;27;19923;-71
2022/08/02 14:15:52;;;;;;;;;;;24.10;99.90;;;;;;5134991;27;19997;-72
2022/08/02 14:18:18;;;;;;;;;;;24.10;99.90;;;;;;5135239;27;19930;-72
2022/08/02 14:20:44;;;;;;;;;;;24.10;99.90;;;;;;5135158;27;19923;-72
2022/08/02 14:23:09;;;;;;;;;;;24.10;99.90;;;;;;5116950;28;19928;-71
2022/08/02 14:25:35;;;;;;;;;;;24.10;99.90;;;;;;5116609;27;19930;-72